sensor_id;sensor_type;location;lat;lon;timestamp;P1;durP1;ratioP1;P2;durP2;ratioP2
11582;SDS011;34299;50.820;4.548;2023-02-22T00:00:08;63.37;;;15.17;;
11582;SDS011;34299;50.820;4.548;2023-02-22T00:02:43;40.30;;;11.53;;
11582;SDS011;34299;50.820;4.548;2023-02-22T00:05:10;53.00;;;13.37;;
11582;SDS011;34299;50.820;4.548;2023-02-22T00:07:40;57.50;;;13.30;;
11582;SDS011;34299;50.820;4.548;2023-02-22T00:10:10;31.70;;;12.77;;
11582;SDS011;34299;50.820;4.548;2023-02-22T00:12:39;50.60;;;11.33;;
11582;SDS011;34299;50.820;4.548;2023-02-22T00:15:06;49.37;;;12.17;;
11582;SDS011;34299;50.820;4.548;2023-02-22T00:17:34;59.17;;;13.43;;
11582;SDS011;34299;50.820;4.548;2023-02-22T00:20:01;58.27;;;11.53;;
11582;SDS011;34299;50.820;4.548;2023-02-22T00:22:30;76.27;;;14.20;;
11582;SDS011;34299;50.820;4.548;2023-02-22T00:24:58;84.93;;;13.13;;
11582;SDS011;34299;50.820;4.548;2023-02-22T00:27:26;43.57;;;12.27;;
11582;SDS011;34299;50.820;4.548;2023-02-22T00:29:54;43.73;;;11.23;;
11582;SDS011;34299;50.820;4.548;2023-02-22T00:32:21;36.50;;;10.90;;
11582;SDS011;34299;50.820;4.548;2023-02-22T00:34:50;68.83;;;12.97;;
11582;SDS011;34299;50.820;4.548;2023-02-22T00:37:18;44.40;;;11.80;;
11582;SDS011;34299;50.820;4.548;2023-02-22T00:39:45;64.13;;;9.60;;
11582;SDS011;34299;50.820;4.548;2023-02-22T00:42:13;46.33;;;10.80;;
11582;SDS011;34299;50.820;4.548;2023-02-22T00:44:41;33.83;;;9.80;;
11582;SDS011;34299;50.820;4.548;2023-02-22T00:47:09;42.73;;;12.23;;
11582;SDS011;34299;50.820;4.548;2023-02-22T00:49:36;53.10;;;10.93;;
11582;SDS011;34299;50.820;4.548;2023-02-22T00:52:04;38.20;;;9.73;;
11582;SDS011;34299;50.820;4.548;2023-02-22T00:54:31;31.63;;;9.87;;
11582;SDS011;34299;50.820;4.548;2023-02-22T00:56:59;16.37;;;7.57;;
11582;SDS011;34299;50.820;4.548;2023-02-22T00:59:26;54.67;;;9.13;;
11582;SDS011;34299;50.820;4.548;2023-02-22T01:01:56;22.73;;;12.03;;
11582;SDS011;34299;50.820;4.548;2023-02-22T01:04:23;42.33;;;9.27;;
11582;SDS011;34299;50.820;4.548;2023-02-22T01:06:51;22.57;;;8.33;;
11582;SDS011;34299;50.820;4.548;2023-02-22T01:09:19;34.10;;;9.70;;
11582;SDS011;34299;50.820;4.548;2023-02-22T01:11:47;24.33;;;8.40;;
11582;SDS011;34299;50.820;4.548;2023-02-22T01:14:14;20.00;;;8.43;;
11582;SDS011;34299;50.820;4.548;2023-02-22T01:16:42;34.63;;;9.73;;
11582;SDS011;34299;50.820;4.548;2023-02-22T01:19:10;29.67;;;10.77;;
11582;SDS011;34299;50.820;4.548;2023-02-22T01:21:38;34.00;;;7.97;;
11582;SDS011;34299;50.820;4.548;2023-02-22T01:24:06;17.10;;;8.90;;
11582;SDS011;34299;50.820;4.548;2023-02-22T01:26:33;42.20;;;10.83;;
11582;SDS011;34299;50.820;4.548;2023-02-22T01:29:01;30.27;;;9.97;;
11582;SDS011;34299;50.820;4.548;2023-02-22T01:31:29;47.73;;;10.50;;
11582;SDS011;34299;50.820;4.548;2023-02-22T01:33:56;19.00;;;8.33;;
11582;SDS011;34299;50.820;4.548;2023-02-22T01:36:25;24.33;;;9.70;;
11582;SDS011;34299;50.820;4.548;2023-02-22T01:38:52;32.87;;;8.13;;
11582;SDS011;34299;50.820;4.548;2023-02-22T01:41:19;30.53;;;8.77;;
11582;SDS011;34299;50.820;4.548;2023-02-22T01:43:47;25.03;;;7.40;;
11582;SDS011;34299;50.820;4.548;2023-02-22T01:46:19;36.00;;;7.93;;
11582;SDS011;34299;50.820;4.548;2023-02-22T01:48:48;21.80;;;8.10;;
11582;SDS011;34299;50.820;4.548;2023-02-22T01:51:16;24.93;;;6.57;;
11582;SDS011;34299;50.820;4.548;2023-02-22T01:53:48;28.87;;;6.20;;
11582;SDS011;34299;50.820;4.548;2023-02-22T01:56:16;24.53;;;7.70;;
11582;SDS011;34299;50.820;4.548;2023-02-22T01:58:49;14.93;;;7.60;;
11582;SDS011;34299;50.820;4.548;2023-02-22T02:01:17;30.50;;;6.77;;
11582;SDS011;34299;50.820;4.548;2023-02-22T02:03:45;21.43;;;7.63;;
11582;SDS011;34299;50.820;4.548;2023-02-22T02:06:13;38.57;;;8.93;;
11582;SDS011;34299;50.820;4.548;2023-02-22T02:08:43;27.83;;;6.53;;
11582;SDS011;34299;50.820;4.548;2023-02-22T02:11:18;31.43;;;8.53;;
11582;SDS011;34299;50.820;4.548;2023-02-22T02:13:45;43.73;;;7.47;;
11582;SDS011;34299;50.820;4.548;2023-02-22T02:16:12;55.30;;;9.03;;
11582;SDS011;34299;50.820;4.548;2023-02-22T02:18:40;38.03;;;7.83;;
11582;SDS011;34299;50.820;4.548;2023-02-22T02:21:17;37.30;;;6.57;;
11582;SDS011;34299;50.820;4.548;2023-02-22T02:23:58;12.23;;;6.23;;
11582;SDS011;34299;50.820;4.548;2023-02-22T02:32:25;26.33;;;5.70;;
11582;SDS011;34299;50.820;4.548;2023-02-22T02:34:55;26.43;;;6.60;;
11582;SDS011;34299;50.820;4.548;2023-02-22T02:37:28;33.73;;;6.83;;
11582;SDS011;34299;50.820;4.548;2023-02-22T02:39:59;24.00;;;7.07;;
11582;SDS011;34299;50.820;4.548;2023-02-22T02:42:35;22.87;;;6.30;;
11582;SDS011;34299;50.820;4.548;2023-02-22T02:45:04;19.23;;;7.00;;
11582;SDS011;34299;50.820;4.548;2023-02-22T02:47:36;26.33;;;6.50;;
11582;SDS011;34299;50.820;4.548;2023-02-22T02:50:07;23.00;;;7.90;;
11582;SDS011;34299;50.820;4.548;2023-02-22T02:52:35;24.07;;;8.13;;
11582;SDS011;34299;50.820;4.548;2023-02-22T02:55:03;17.17;;;7.17;;
11582;SDS011;34299;50.820;4.548;2023-02-22T02:57:31;9.80;;;6.27;;
11582;SDS011;34299;50.820;4.548;2023-02-22T02:59:58;33.23;;;7.63;;
11582;SDS011;34299;50.820;4.548;2023-02-22T03:02:30;22.70;;;7.40;;
11582;SDS011;34299;50.820;4.548;2023-02-22T03:05:06;31.63;;;8.30;;
11582;SDS011;34299;50.820;4.548;2023-02-22T03:07:41;22.43;;;8.13;;
11582;SDS011;34299;50.820;4.548;2023-02-22T03:10:20;15.13;;;7.07;;
11582;SDS011;34299;50.820;4.548;2023-02-22T03:12:53;21.83;;;6.10;;
11582;SDS011;34299;50.820;4.548;2023-02-22T03:15:26;8.37;;;5.70;;
11582;SDS011;34299;50.820;4.548;2023-02-22T03:17:58;8.13;;;4.77;;
11582;SDS011;34299;50.820;4.548;2023-02-22T03:20:30;25.03;;;6.77;;
11582;SDS011;34299;50.820;4.548;2023-02-22T03:23:00;9.77;;;5.87;;
11582;SDS011;34299;50.820;4.548;2023-02-22T03:25:31;7.37;;;4.87;;
11582;SDS011;34299;50.820;4.548;2023-02-22T03:28:00;38.33;;;7.90;;
11582;SDS011;34299;50.820;4.548;2023-02-22T03:30:30;35.37;;;9.20;;
11582;SDS011;34299;50.820;4.548;2023-02-22T03:32:59;15.67;;;6.47;;
11582;SDS011;34299;50.820;4.548;2023-02-22T03:35:34;16.93;;;5.97;;
11582;SDS011;34299;50.820;4.548;2023-02-22T03:38:04;16.23;;;5.60;;
11582;SDS011;34299;50.820;4.548;2023-02-22T03:40:33;16.30;;;5.93;;
11582;SDS011;34299;50.820;4.548;2023-02-22T03:43:02;16.73;;;6.50;;
11582;SDS011;34299;50.820;4.548;2023-02-22T03:45:31;21.27;;;6.50;;
11582;SDS011;34299;50.820;4.548;2023-02-22T03:48:01;23.53;;;5.80;;
11582;SDS011;34299;50.820;4.548;2023-02-22T03:50:31;11.53;;;6.00;;
11582;SDS011;34299;50.820;4.548;2023-02-22T03:53:02;27.70;;;7.37;;
11582;SDS011;34299;50.820;4.548;2023-02-22T03:55:31;24.97;;;5.90;;
11582;SDS011;34299;50.820;4.548;2023-02-22T03:57:59;9.57;;;4.60;;
11582;SDS011;34299;50.820;4.548;2023-02-22T04:00:29;17.90;;;5.07;;
11582;SDS011;34299;50.820;4.548;2023-02-22T04:02:58;13.90;;;6.43;;
11582;SDS011;34299;50.820;4.548;2023-02-22T04:05:25;13.17;;;4.87;;
11582;SDS011;34299;50.820;4.548;2023-02-22T04:07:52;29.77;;;6.43;;
11582;SDS011;34299;50.820;4.548;2023-02-22T04:10:21;13.73;;;6.23;;
11582;SDS011;34299;50.820;4.548;2023-02-22T04:12:48;10.50;;;4.90;;
11582;SDS011;34299;50.820;4.548;2023-02-22T04:15:16;9.47;;;4.17;;
11582;SDS011;34299;50.820;4.548;2023-02-22T04:17:44;7.50;;;4.40;;
11582;SDS011;34299;50.820;4.548;2023-02-22T04:20:11;6.73;;;4.43;;
11582;SDS011;34299;50.820;4.548;2023-02-22T04:22:38;6.90;;;5.10;;
11582;SDS011;34299;50.820;4.548;2023-02-22T04:25:06;14.90;;;5.00;;
11582;SDS011;34299;50.820;4.548;2023-02-22T04:27:34;6.73;;;4.77;;
11582;SDS011;34299;50.820;4.548;2023-02-22T04:30:02;7.03;;;4.93;;
11582;SDS011;34299;50.820;4.548;2023-02-22T04:32:29;13.37;;;5.77;;
11582;SDS011;34299;50.820;4.548;2023-02-22T04:34:56;9.40;;;5.60;;
11582;SDS011;34299;50.820;4.548;2023-02-22T04:37:24;6.37;;;4.67;;
11582;SDS011;34299;50.820;4.548;2023-02-22T04:39:51;8.10;;;4.57;;
11582;SDS011;34299;50.820;4.548;2023-02-22T04:42:18;5.00;;;3.70;;
11582;SDS011;34299;50.820;4.548;2023-02-22T04:44:47;8.43;;;4.10;;
11582;SDS011;34299;50.820;4.548;2023-02-22T04:47:14;9.63;;;4.83;;
11582;SDS011;34299;50.820;4.548;2023-02-22T04:49:41;9.70;;;5.23;;
11582;SDS011;34299;50.820;4.548;2023-02-22T04:52:09;8.27;;;4.90;;
11582;SDS011;34299;50.820;4.548;2023-02-22T04:54:37;7.03;;;4.37;;
11582;SDS011;34299;50.820;4.548;2023-02-22T04:57:04;6.63;;;5.40;;
11582;SDS011;34299;50.820;4.548;2023-02-22T04:59:31;5.60;;;3.77;;
11582;SDS011;34299;50.820;4.548;2023-02-22T05:01:59;10.07;;;5.20;;
11582;SDS011;34299;50.820;4.548;2023-02-22T05:04:27;7.00;;;4.87;;
11582;SDS011;34299;50.820;4.548;2023-02-22T05:06:54;7.93;;;4.90;;
11582;SDS011;34299;50.820;4.548;2023-02-22T05:09:21;5.40;;;3.90;;
11582;SDS011;34299;50.820;4.548;2023-02-22T05:11:49;8.10;;;4.60;;
11582;SDS011;34299;50.820;4.548;2023-02-22T05:14:16;6.90;;;4.57;;
11582;SDS011;34299;50.820;4.548;2023-02-22T05:16:43;6.87;;;4.33;;
11582;SDS011;34299;50.820;4.548;2023-02-22T05:19:12;6.97;;;4.97;;
11582;SDS011;34299;50.820;4.548;2023-02-22T05:21:39;7.47;;;4.60;;
11582;SDS011;34299;50.820;4.548;2023-02-22T05:24:06;5.60;;;4.10;;
11582;SDS011;34299;50.820;4.548;2023-02-22T05:26:34;9.20;;;3.83;;
11582;SDS011;34299;50.820;4.548;2023-02-22T05:29:01;8.37;;;4.83;;
11582;SDS011;34299;50.820;4.548;2023-02-22T05:31:28;6.17;;;4.40;;
11582;SDS011;34299;50.820;4.548;2023-02-22T05:33:55;5.53;;;4.37;;
11582;SDS011;34299;50.820;4.548;2023-02-22T05:36:24;5.60;;;5.00;;
11582;SDS011;34299;50.820;4.548;2023-02-22T05:38:52;6.00;;;4.43;;
11582;SDS011;34299;50.820;4.548;2023-02-22T05:41:19;7.63;;;4.57;;
11582;SDS011;34299;50.820;4.548;2023-02-22T05:43:46;8.20;;;5.70;;
11582;SDS011;34299;50.820;4.548;2023-02-22T05:46:14;8.37;;;5.23;;
11582;SDS011;34299;50.820;4.548;2023-02-22T05:48:41;4.83;;;4.33;;
11582;SDS011;34299;50.820;4.548;2023-02-22T05:51:08;8.13;;;4.70;;
11582;SDS011;34299;50.820;4.548;2023-02-22T05:53:37;5.57;;;4.53;;
11582;SDS011;34299;50.820;4.548;2023-02-22T05:56:04;7.87;;;4.70;;
11582;SDS011;34299;50.820;4.548;2023-02-22T05:58:32;10.73;;;4.83;;
11582;SDS011;34299;50.820;4.548;2023-02-22T06:00:59;7.60;;;4.53;;
11582;SDS011;34299;50.820;4.548;2023-02-22T06:03:26;8.63;;;5.23;;
11582;SDS011;34299;50.820;4.548;2023-02-22T06:05:53;5.50;;;4.27;;
11582;SDS011;34299;50.820;4.548;2023-02-22T06:08:22;7.83;;;4.40;;
11582;SDS011;34299;50.820;4.548;2023-02-22T06:10:50;5.90;;;4.00;;
11582;SDS011;34299;50.820;4.548;2023-02-22T06:13:18;6.37;;;3.87;;
11582;SDS011;34299;50.820;4.548;2023-02-22T06:15:45;8.57;;;3.90;;
11582;SDS011;34299;50.820;4.548;2023-02-22T06:18:12;4.63;;;4.13;;
11582;SDS011;34299;50.820;4.548;2023-02-22T06:20:40;8.37;;;4.40;;
11582;SDS011;34299;50.820;4.548;2023-02-22T06:23:07;5.50;;;4.43;;
11582;SDS011;34299;50.820;4.548;2023-02-22T06:25:35;6.83;;;4.47;;
11582;SDS011;34299;50.820;4.548;2023-02-22T06:28:03;5.03;;;3.90;;
11582;SDS011;34299;50.820;4.548;2023-02-22T06:30:31;7.03;;;4.40;;
11582;SDS011;34299;50.820;4.548;2023-02-22T06:32:58;5.53;;;4.57;;
11582;SDS011;34299;50.820;4.548;2023-02-22T06:35:26;6.63;;;4.83;;
11582;SDS011;34299;50.820;4.548;2023-02-22T06:37:53;4.27;;;3.60;;
11582;SDS011;34299;50.820;4.548;2023-02-22T06:40:20;9.60;;;5.53;;
11582;SDS011;34299;50.820;4.548;2023-02-22T06:42:47;7.27;;;4.53;;
11582;SDS011;34299;50.820;4.548;2023-02-22T06:45:16;6.33;;;4.33;;
11582;SDS011;34299;50.820;4.548;2023-02-22T06:47:43;7.00;;;3.80;;
11582;SDS011;34299;50.820;4.548;2023-02-22T06:50:16;4.53;;;3.77;;
11582;SDS011;34299;50.820;4.548;2023-02-22T06:52:44;7.03;;;3.90;;
11582;SDS011;34299;50.820;4.548;2023-02-22T06:55:15;7.43;;;4.13;;
11582;SDS011;34299;50.820;4.548;2023-02-22T06:57:42;5.33;;;4.03;;
11582;SDS011;34299;50.820;4.548;2023-02-22T07:00:10;5.63;;;4.70;;
11582;SDS011;34299;50.820;4.548;2023-02-22T07:02:39;5.80;;;3.50;;
11582;SDS011;34299;50.820;4.548;2023-02-22T07:05:06;6.60;;;3.87;;
11582;SDS011;34299;50.820;4.548;2023-02-22T07:07:33;6.30;;;4.17;;
11582;SDS011;34299;50.820;4.548;2023-02-22T07:10:03;6.20;;;4.13;;
11582;SDS011;34299;50.820;4.548;2023-02-22T07:12:30;6.20;;;4.60;;
11582;SDS011;34299;50.820;4.548;2023-02-22T07:14:57;11.63;;;4.50;;
11582;SDS011;34299;50.820;4.548;2023-02-22T07:17:24;5.63;;;3.23;;
11582;SDS011;34299;50.820;4.548;2023-02-22T07:19:53;5.07;;;3.87;;
11582;SDS011;34299;50.820;4.548;2023-02-22T07:22:20;6.90;;;4.30;;
11582;SDS011;34299;50.820;4.548;2023-02-22T07:24:47;5.33;;;3.67;;
11582;SDS011;34299;50.820;4.548;2023-02-22T07:27:14;6.80;;;5.50;;
11582;SDS011;34299;50.820;4.548;2023-02-22T07:29:42;6.40;;;3.67;;
11582;SDS011;34299;50.820;4.548;2023-02-22T07:32:10;6.30;;;4.30;;
11582;SDS011;34299;50.820;4.548;2023-02-22T07:34:39;7.90;;;4.60;;
11582;SDS011;34299;50.820;4.548;2023-02-22T07:37:08;4.97;;;4.03;;
11582;SDS011;34299;50.820;4.548;2023-02-22T07:39:35;11.00;;;4.57;;
11582;SDS011;34299;50.820;4.548;2023-02-22T07:42:02;7.07;;;4.50;;
11582;SDS011;34299;50.820;4.548;2023-02-22T07:44:30;6.27;;;3.80;;
11582;SDS011;34299;50.820;4.548;2023-02-22T07:46:57;8.70;;;5.33;;
11582;SDS011;34299;50.820;4.548;2023-02-22T07:49:26;10.47;;;5.27;;
11582;SDS011;34299;50.820;4.548;2023-02-22T07:51:53;6.47;;;4.63;;
11582;SDS011;34299;50.820;4.548;2023-02-22T07:54:22;11.17;;;7.50;;
11582;SDS011;34299;50.820;4.548;2023-02-22T07:56:49;10.70;;;6.60;;
11582;SDS011;34299;50.820;4.548;2023-02-22T07:59:16;10.17;;;6.33;;
11582;SDS011;34299;50.820;4.548;2023-02-22T08:01:47;11.87;;;6.43;;
11582;SDS011;34299;50.820;4.548;2023-02-22T08:04:15;11.53;;;6.50;;
11582;SDS011;34299;50.820;4.548;2023-02-22T08:06:42;9.63;;;6.33;;
11582;SDS011;34299;50.820;4.548;2023-02-22T08:09:10;10.87;;;5.73;;
11582;SDS011;34299;50.820;4.548;2023-02-22T08:11:39;11.47;;;6.53;;
11582;SDS011;34299;50.820;4.548;2023-02-22T08:14:06;9.40;;;5.97;;
11582;SDS011;34299;50.820;4.548;2023-02-22T08:16:33;11.73;;;6.63;;
11582;SDS011;34299;50.820;4.548;2023-02-22T08:19:00;10.70;;;6.03;;
11582;SDS011;34299;50.820;4.548;2023-02-22T08:21:27;9.47;;;6.43;;
11582;SDS011;34299;50.820;4.548;2023-02-22T08:23:55;12.27;;;7.13;;
11582;SDS011;34299;50.820;4.548;2023-02-22T08:26:22;12.07;;;7.83;;
11582;SDS011;34299;50.820;4.548;2023-02-22T08:28:51;7.90;;;6.13;;
11582;SDS011;34299;50.820;4.548;2023-02-22T08:31:18;13.73;;;8.13;;
11582;SDS011;34299;50.820;4.548;2023-02-22T08:33:46;11.80;;;7.63;;
11582;SDS011;34299;50.820;4.548;2023-02-22T08:36:14;12.23;;;7.43;;
11582;SDS011;34299;50.820;4.548;2023-02-22T08:38:42;13.87;;;7.97;;
11582;SDS011;34299;50.820;4.548;2023-02-22T08:41:09;12.43;;;7.57;;
11582;SDS011;34299;50.820;4.548;2023-02-22T08:43:37;14.33;;;9.33;;
11582;SDS011;34299;50.820;4.548;2023-02-22T08:46:05;16.23;;;11.10;;
11582;SDS011;34299;50.820;4.548;2023-02-22T08:48:32;17.53;;;9.80;;
11582;SDS011;34299;50.820;4.548;2023-02-22T08:51:00;16.70;;;12.00;;
11582;SDS011;34299;50.820;4.548;2023-02-22T08:53:27;12.20;;;8.33;;
11582;SDS011;34299;50.820;4.548;2023-02-22T08:55:56;16.73;;;8.93;;
11582;SDS011;34299;50.820;4.548;2023-02-22T08:58:23;14.87;;;10.00;;
11582;SDS011;34299;50.820;4.548;2023-02-22T09:00:50;16.33;;;10.00;;
11582;SDS011;34299;50.820;4.548;2023-02-22T09:03:19;15.93;;;9.97;;
11582;SDS011;34299;50.820;4.548;2023-02-22T09:05:46;16.13;;;9.40;;
11582;SDS011;34299;50.820;4.548;2023-02-22T09:08:14;15.47;;;9.47;;
11582;SDS011;34299;50.820;4.548;2023-02-22T09:10:42;17.40;;;9.97;;
11582;SDS011;34299;50.820;4.548;2023-02-22T09:13:09;16.37;;;10.10;;
11582;SDS011;34299;50.820;4.548;2023-02-22T09:15:37;14.87;;;9.53;;
11582;SDS011;34299;50.820;4.548;2023-02-22T09:18:05;17.83;;;11.23;;
11582;SDS011;34299;50.820;4.548;2023-02-22T09:20:34;14.07;;;9.00;;
11582;SDS011;34299;50.820;4.548;2023-02-22T09:23:02;16.53;;;9.63;;
11582;SDS011;34299;50.820;4.548;2023-02-22T09:25:29;15.83;;;10.03;;
11582;SDS011;34299;50.820;4.548;2023-02-22T09:27:58;14.10;;;9.70;;
11582;SDS011;34299;50.820;4.548;2023-02-22T09:30:26;15.67;;;10.23;;
11582;SDS011;34299;50.820;4.548;2023-02-22T09:32:56;15.93;;;9.13;;
11582;SDS011;34299;50.820;4.548;2023-02-22T09:35:24;12.77;;;8.90;;
11582;SDS011;34299;50.820;4.548;2023-02-22T09:37:54;12.80;;;9.87;;
11582;SDS011;34299;50.820;4.548;2023-02-22T09:40:22;12.37;;;9.07;;
11582;SDS011;34299;50.820;4.548;2023-02-22T09:43:06;15.53;;;9.43;;
11582;SDS011;34299;50.820;4.548;2023-02-22T09:45:36;14.47;;;8.37;;
11582;SDS011;34299;50.820;4.548;2023-02-22T09:48:05;12.77;;;7.50;;
11582;SDS011;34299;50.820;4.548;2023-02-22T09:50:33;11.80;;;7.83;;
11582;SDS011;34299;50.820;4.548;2023-02-22T09:53:04;12.93;;;8.80;;
11582;SDS011;34299;50.820;4.548;2023-02-22T09:55:33;11.00;;;7.73;;
11582;SDS011;34299;50.820;4.548;2023-02-22T09:58:03;13.73;;;9.07;;
11582;SDS011;34299;50.820;4.548;2023-02-22T10:00:31;12.83;;;8.43;;
11582;SDS011;34299;50.820;4.548;2023-02-22T10:03:06;11.40;;;8.03;;
11582;SDS011;34299;50.820;4.548;2023-02-22T10:05:35;13.27;;;8.00;;
11582;SDS011;34299;50.820;4.548;2023-02-22T10:08:07;11.93;;;7.37;;
11582;SDS011;34299;50.820;4.548;2023-02-22T10:10:37;11.93;;;7.37;;
11582;SDS011;34299;50.820;4.548;2023-02-22T10:13:08;13.37;;;9.23;;
11582;SDS011;34299;50.820;4.548;2023-02-22T10:15:45;11.43;;;7.60;;
11582;SDS011;34299;50.820;4.548;2023-02-22T10:18:23;12.20;;;8.27;;
11582;SDS011;34299;50.820;4.548;2023-02-22T10:20:58;16.90;;;10.73;;
11582;SDS011;34299;50.820;4.548;2023-02-22T10:23:31;33.53;;;16.03;;
11582;SDS011;34299;50.820;4.548;2023-02-22T10:26:03;24.00;;;12.43;;
11582;SDS011;34299;50.820;4.548;2023-02-22T10:28:33;15.00;;;9.40;;
11582;SDS011;34299;50.820;4.548;2023-02-22T10:31:04;15.63;;;9.27;;
11582;SDS011;34299;50.820;4.548;2023-02-22T10:33:34;14.33;;;8.60;;
11582;SDS011;34299;50.820;4.548;2023-02-22T10:36:04;16.37;;;8.40;;
11582;SDS011;34299;50.820;4.548;2023-02-22T10:38:33;12.93;;;8.97;;
11582;SDS011;34299;50.820;4.548;2023-02-22T10:41:11;16.67;;;9.30;;
11582;SDS011;34299;50.820;4.548;2023-02-22T10:43:45;11.57;;;8.63;;
11582;SDS011;34299;50.820;4.548;2023-02-22T10:46:12;14.23;;;7.87;;
11582;SDS011;34299;50.820;4.548;2023-02-22T10:48:41;13.17;;;8.80;;
11582;SDS011;34299;50.820;4.548;2023-02-22T10:51:09;14.00;;;8.63;;
11582;SDS011;34299;50.820;4.548;2023-02-22T10:53:38;13.20;;;8.57;;
11582;SDS011;34299;50.820;4.548;2023-02-22T10:56:07;14.03;;;9.13;;
11582;SDS011;34299;50.820;4.548;2023-02-22T10:58:43;14.67;;;8.83;;
11582;SDS011;34299;50.820;4.548;2023-02-22T11:01:19;13.87;;;9.13;;
11582;SDS011;34299;50.820;4.548;2023-02-22T11:03:54;13.10;;;8.23;;
11582;SDS011;34299;50.820;4.548;2023-02-22T11:06:22;14.03;;;9.00;;
11582;SDS011;34299;50.820;4.548;2023-02-22T11:08:51;14.80;;;9.23;;
11582;SDS011;34299;50.820;4.548;2023-02-22T11:11:29;13.50;;;9.33;;
11582;SDS011;34299;50.820;4.548;2023-02-22T11:13:58;14.50;;;9.13;;
11582;SDS011;34299;50.820;4.548;2023-02-22T11:16:27;14.63;;;9.77;;
11582;SDS011;34299;50.820;4.548;2023-02-22T11:19:01;15.13;;;9.33;;
11582;SDS011;34299;50.820;4.548;2023-02-22T11:21:28;14.43;;;9.33;;
11582;SDS011;34299;50.820;4.548;2023-02-22T11:24:01;15.87;;;9.00;;
11582;SDS011;34299;50.820;4.548;2023-02-22T11:26:34;15.97;;;9.37;;
11582;SDS011;34299;50.820;4.548;2023-02-22T11:29:07;17.27;;;9.43;;
11582;SDS011;34299;50.820;4.548;2023-02-22T11:31:39;15.00;;;9.67;;
11582;SDS011;34299;50.820;4.548;2023-02-22T11:34:07;16.70;;;10.03;;
11582;SDS011;34299;50.820;4.548;2023-02-22T11:36:50;19.27;;;11.47;;
11582;SDS011;34299;50.820;4.548;2023-02-22T11:39:23;17.77;;;11.13;;
11582;SDS011;34299;50.820;4.548;2023-02-22T11:41:51;19.53;;;12.30;;
11582;SDS011;34299;50.820;4.548;2023-02-22T11:44:22;19.23;;;13.60;;
11582;SDS011;34299;50.820;4.548;2023-02-22T11:46:51;20.30;;;13.77;;
11582;SDS011;34299;50.820;4.548;2023-02-22T11:49:20;20.07;;;13.67;;
11582;SDS011;34299;50.820;4.548;2023-02-22T11:51:50;17.97;;;12.87;;
11582;SDS011;34299;50.820;4.548;2023-02-22T11:54:30;21.00;;;12.77;;
11582;SDS011;34299;50.820;4.548;2023-02-22T11:57:04;22.60;;;14.13;;
11582;SDS011;34299;50.820;4.548;2023-02-22T11:59:34;20.50;;;14.53;;
11582;SDS011;34299;50.820;4.548;2023-02-22T12:02:04;23.00;;;13.17;;
11582;SDS011;34299;50.820;4.548;2023-02-22T12:04:46;21.00;;;13.63;;
11582;SDS011;34299;50.820;4.548;2023-02-22T12:07:32;19.40;;;13.37;;
11582;SDS011;34299;50.820;4.548;2023-02-22T12:10:11;20.20;;;13.73;;
11582;SDS011;34299;50.820;4.548;2023-02-22T12:12:44;18.93;;;13.53;;
11582;SDS011;34299;50.820;4.548;2023-02-22T12:15:18;20.13;;;13.37;;
11582;SDS011;34299;50.820;4.548;2023-02-22T12:17:50;20.93;;;13.13;;
11582;SDS011;34299;50.820;4.548;2023-02-22T12:20:21;21.87;;;13.73;;
11582;SDS011;34299;50.820;4.548;2023-02-22T12:22:55;22.40;;;13.50;;
11582;SDS011;34299;50.820;4.548;2023-02-22T12:25:27;18.73;;;13.97;;
11582;SDS011;34299;50.820;4.548;2023-02-22T12:27:58;22.93;;;14.33;;
11582;SDS011;34299;50.820;4.548;2023-02-22T12:30:26;23.80;;;14.20;;
11582;SDS011;34299;50.820;4.548;2023-02-22T12:32:56;21.50;;;15.10;;
11582;SDS011;34299;50.820;4.548;2023-02-22T12:35:25;20.87;;;14.13;;
11582;SDS011;34299;50.820;4.548;2023-02-22T12:37:58;20.00;;;13.67;;
11582;SDS011;34299;50.820;4.548;2023-02-22T12:40:31;22.17;;;14.57;;
11582;SDS011;34299;50.820;4.548;2023-02-22T12:43:01;22.10;;;14.30;;
11582;SDS011;34299;50.820;4.548;2023-02-22T12:45:31;22.53;;;14.33;;
11582;SDS011;34299;50.820;4.548;2023-02-22T12:48:03;22.13;;;13.30;;
11582;SDS011;34299;50.820;4.548;2023-02-22T12:50:32;20.13;;;13.80;;
11582;SDS011;34299;50.820;4.548;2023-02-22T12:53:01;21.77;;;13.43;;
11582;SDS011;34299;50.820;4.548;2023-02-22T12:55:32;19.70;;;13.10;;
11582;SDS011;34299;50.820;4.548;2023-02-22T12:58:03;17.30;;;12.37;;
11582;SDS011;34299;50.820;4.548;2023-02-22T13:00:34;17.27;;;13.47;;
11582;SDS011;34299;50.820;4.548;2023-02-22T13:03:04;19.90;;;14.17;;
11582;SDS011;34299;50.820;4.548;2023-02-22T13:05:38;18.33;;;13.00;;
11582;SDS011;34299;50.820;4.548;2023-02-22T13:08:13;22.27;;;14.00;;
11582;SDS011;34299;50.820;4.548;2023-02-22T13:10:54;23.70;;;13.80;;
11582;SDS011;34299;50.820;4.548;2023-02-22T13:13:23;20.97;;;14.40;;
11582;SDS011;34299;50.820;4.548;2023-02-22T13:15:56;19.53;;;12.47;;
11582;SDS011;34299;50.820;4.548;2023-02-22T13:18:26;22.17;;;13.40;;
11582;SDS011;34299;50.820;4.548;2023-02-22T13:20:57;20.23;;;13.83;;
11582;SDS011;34299;50.820;4.548;2023-02-22T13:23:29;22.77;;;13.77;;
11582;SDS011;34299;50.820;4.548;2023-02-22T13:26:02;16.07;;;11.83;;
11582;SDS011;34299;50.820;4.548;2023-02-22T13:28:33;18.33;;;12.40;;
11582;SDS011;34299;50.820;4.548;2023-02-22T13:31:05;21.77;;;14.07;;
11582;SDS011;34299;50.820;4.548;2023-02-22T13:33:48;26.97;;;14.17;;
11582;SDS011;34299;50.820;4.548;2023-02-22T13:36:25;17.80;;;12.70;;
11582;SDS011;34299;50.820;4.548;2023-02-22T13:39:04;24.10;;;13.77;;
11582;SDS011;34299;50.820;4.548;2023-02-22T13:41:47;21.63;;;13.37;;
11582;SDS011;34299;50.820;4.548;2023-02-22T13:44:29;18.80;;;12.13;;
11582;SDS011;34299;50.820;4.548;2023-02-22T13:47:02;23.23;;;14.53;;
11582;SDS011;34299;50.820;4.548;2023-02-22T13:49:42;25.27;;;15.97;;
11582;SDS011;34299;50.820;4.548;2023-02-22T13:52:14;23.80;;;15.20;;
11582;SDS011;34299;50.820;4.548;2023-02-22T13:54:42;25.57;;;16.50;;
11582;SDS011;34299;50.820;4.548;2023-02-22T13:57:20;23.67;;;15.27;;
11582;SDS011;34299;50.820;4.548;2023-02-22T13:59:47;24.67;;;16.53;;
11582;SDS011;34299;50.820;4.548;2023-02-22T14:02:31;24.47;;;16.87;;
11582;SDS011;34299;50.820;4.548;2023-02-22T14:07:46;29.87;;;18.33;;
11582;SDS011;34299;50.820;4.548;2023-02-22T14:13:04;30.73;;;18.20;;
11582;SDS011;34299;50.820;4.548;2023-02-22T14:15:31;30.70;;;20.00;;
11582;SDS011;34299;50.820;4.548;2023-02-22T14:17:59;35.20;;;21.57;;
11582;SDS011;34299;50.820;4.548;2023-02-22T14:20:29;33.53;;;21.17;;
11582;SDS011;34299;50.820;4.548;2023-02-22T14:25:40;33.73;;;21.30;;
11582;SDS011;34299;50.820;4.548;2023-02-22T14:31:03;33.03;;;19.67;;
11582;SDS011;34299;50.820;4.548;2023-02-22T14:36:32;31.20;;;18.27;;
11582;SDS011;34299;50.820;4.548;2023-02-22T14:39:11;31.07;;;18.90;;
11582;SDS011;34299;50.820;4.548;2023-02-22T14:41:40;28.83;;;18.30;;
11582;SDS011;34299;50.820;4.548;2023-02-22T14:44:10;29.87;;;18.67;;
11582;SDS011;34299;50.820;4.548;2023-02-22T14:46:39;31.47;;;19.83;;
11582;SDS011;34299;50.820;4.548;2023-02-22T14:49:08;29.70;;;20.53;;
11582;SDS011;34299;50.820;4.548;2023-02-22T14:51:43;33.07;;;20.27;;
11582;SDS011;34299;50.820;4.548;2023-02-22T14:54:18;28.90;;;18.40;;
11582;SDS011;34299;50.820;4.548;2023-02-22T14:56:50;34.00;;;18.83;;
11582;SDS011;34299;50.820;4.548;2023-02-22T14:59:20;26.60;;;19.67;;
11582;SDS011;34299;50.820;4.548;2023-02-22T15:01:48;31.63;;;18.80;;
11582;SDS011;34299;50.820;4.548;2023-02-22T15:04:16;25.67;;;17.40;;
11582;SDS011;34299;50.820;4.548;2023-02-22T15:06:43;25.40;;;18.00;;